This is the latest recevied weather packets stored in our database for station/object SA3VCC-15. If no packets are shown the sender has not sent any weather packets the latest 10 day(s).
| Time | Temp. | Humidity | Pressure | Rain* | Wind** | Luminosity | Snow |
|---|---|---|---|---|---|---|---|
| 1777576445 | 10° C | 60% | 1021 hPa | - | - | - | - |
| 1777575185 | 12.22° C | 52% | 1020.9 hPa | - | - | - | - |
| 1777573924 | 13.89° C | 46% | 1020.9 hPa | - | - | - | - |
| 1777572665 | 15° C | 44% | 1020.8 hPa | - | - | - | - |
| 1777571405 | 16.11° C | 40% | 1020.6 hPa | - | - | - | - |
| 1777570144 | 16.67° C | 41% | 1020.5 hPa | - | - | - | - |
| 1777568884 | 18.33° C | 37% | 1020.4 hPa | - | - | - | - |
| 1777567624 | 20° C | 33% | 1020.4 hPa | - | - | - | - |
| 1777566364 | 20.56° C | 31% | 1020.3 hPa | - | - | - | - |
| 1777562585 | 27.78° C | 21% | 1020.4 hPa | - | - | - | - |
| 1777561324 | 25.56° C | 23% | 1020.5 hPa | - | - | - | - |
| 1777560064 | 28.33° C | 20% | 1020.6 hPa | - | - | - | - |
| 1777555024 | 25.56° C | 22% | 1021.3 hPa | - | - | - | - |
| 1777553764 | 20.56° C | 30% | 1021.6 hPa | - | - | - | - |
| 1777549984 | 22.22° C | 31% | 1022 hPa | - | - | - | - |
| 1777548724 | 24.44° C | 30% | 1022 hPa | - | - | - | - |
| 1777547464 | 22.22° C | 33% | 1022.2 hPa | - | - | - | - |
| 1777544944 | 21.11° C | 37% | 1022.4 hPa | - | - | - | - |
| 1777543684 | 22.22° C | 36% | 1022.5 hPa | - | - | - | - |
| 1777542424 | 21.11° C | 38% | 1022.7 hPa | - | - | - | - |
| 1777541164 | 18.33° C | 43% | 1022.9 hPa | - | - | - | - |
| 1777537383 | 17.22° C | 46% | 1023.3 hPa | - | - | - | - |
| 1777536123 | 16.11° C | 47% | 1023.3 hPa | - | - | - | - |
| 1777534863 | 17.22° C | 46% | 1023.3 hPa | - | - | - | - |
| 1777532343 | 15.56° C | 51% | 1023.4 hPa | - | - | - | - |
* Rain since midnight (hover to see other rain measurements)
** Current wind speed in m/s (hover to see current wind gust speed)